Terminal Aerodrome Forecast
Issued by NWS

Current Version | Previous Version | Graphics & Text | Print | Product List | Glossary On
Versions: 1 2 3 4 5 6 7 8 9 10 11 12 13 14 15 16 17 18 19 20 21
000
FTUS41 KILN 292206 AAA
TAFLCK
TAF AMD
KLCK 292206Z 2922/3018 19011G15KT P6SM VCTS BKN040CB
      TEMPO 2923/3001 VRB20G30KT 3SM -TSRA BKN030CB
     FM300300 21002KT P6SM BKN050
     FM300600 32003KT P6SM SKC
     FM301500 30008KT P6SM FEW050=

USA.gov is the U.S. government's official web portal to all federal, state and local government web resources and services.